sensor_id;sensor_type;location;lat;lon;timestamp;P1;durP1;ratioP1;P2;durP2;ratioP2
8007;SDS011;4049;49.468;11.200;2022-08-01T00:02:18;3.67;;;3.37;;
8007;SDS011;4049;49.468;11.200;2022-08-01T00:04:45;4.40;;;3.43;;
8007;SDS011;4049;49.468;11.200;2022-08-01T00:07:12;3.80;;;3.50;;
8007;SDS011;4049;49.468;11.200;2022-08-01T00:09:39;3.67;;;3.30;;
8007;SDS011;4049;49.468;11.200;2022-08-01T00:12:06;6.53;;;3.47;;
8007;SDS011;4049;49.468;11.200;2022-08-01T00:14:33;5.90;;;3.77;;
8007;SDS011;4049;49.468;11.200;2022-08-01T00:17:01;3.80;;;3.20;;
8007;SDS011;4049;49.468;11.200;2022-08-01T00:19:28;3.67;;;3.30;;
8007;SDS011;4049;49.468;11.200;2022-08-01T00:21:55;6.37;;;3.57;;
8007;SDS011;4049;49.468;11.200;2022-08-01T00:24:22;3.40;;;3.10;;
8007;SDS011;4049;49.468;11.200;2022-08-01T00:26:49;3.53;;;3.23;;
8007;SDS011;4049;49.468;11.200;2022-08-01T00:29:16;3.57;;;3.27;;
8007;SDS011;4049;49.468;11.200;2022-08-01T00:31:43;4.63;;;3.23;;
8007;SDS011;4049;49.468;11.200;2022-08-01T00:34:12;3.70;;;3.40;;
8007;SDS011;4049;49.468;11.200;2022-08-01T00:36:39;3.43;;;3.13;;
8007;SDS011;4049;49.468;11.200;2022-08-01T00:39:06;3.87;;;3.47;;
8007;SDS011;4049;49.468;11.200;2022-08-01T00:41:33;4.10;;;3.47;;
8007;SDS011;4049;49.468;11.200;2022-08-01T00:44:01;4.70;;;3.40;;
8007;SDS011;4049;49.468;11.200;2022-08-01T00:46:30;5.60;;;3.97;;
8007;SDS011;4049;49.468;11.200;2022-08-01T00:48:57;4.73;;;3.50;;
8007;SDS011;4049;49.468;11.200;2022-08-01T00:51:25;3.50;;;3.20;;
8007;SDS011;4049;49.468;11.200;2022-08-01T00:53:53;3.80;;;3.40;;
8007;SDS011;4049;49.468;11.200;2022-08-01T00:56:21;3.50;;;3.20;;
8007;SDS011;4049;49.468;11.200;2022-08-01T00:58:50;4.17;;;3.17;;
8007;SDS011;4049;49.468;11.200;2022-08-01T01:01:18;3.87;;;3.37;;
8007;SDS011;4049;49.468;11.200;2022-08-01T01:03:46;3.60;;;3.30;;
8007;SDS011;4049;49.468;11.200;2022-08-01T01:06:21;5.80;;;3.27;;
8007;SDS011;4049;49.468;11.200;2022-08-01T01:08:55;4.50;;;3.33;;
8007;SDS011;4049;49.468;11.200;2022-08-01T01:11:36;3.60;;;3.30;;
8007;SDS011;4049;49.468;11.200;2022-08-01T01:14:13;3.50;;;3.20;;
8007;SDS011;4049;49.468;11.200;2022-08-01T01:16:49;4.07;;;3.40;;
8007;SDS011;4049;49.468;11.200;2022-08-01T01:19:20;5.10;;;3.50;;
8007;SDS011;4049;49.468;11.200;2022-08-01T01:22:05;5.03;;;3.53;;
8007;SDS011;4049;49.468;11.200;2022-08-01T01:24:45;4.97;;;3.50;;
8007;SDS011;4049;49.468;11.200;2022-08-01T01:27:33;3.80;;;3.40;;
8007;SDS011;4049;49.468;11.200;2022-08-01T01:30:09;3.90;;;3.53;;
8007;SDS011;4049;49.468;11.200;2022-08-01T01:32:38;4.50;;;3.93;;
8007;SDS011;4049;49.468;11.200;2022-08-01T01:35:09;4.03;;;3.47;;
8007;SDS011;4049;49.468;11.200;2022-08-01T01:37:45;4.47;;;3.33;;
8007;SDS011;4049;49.468;11.200;2022-08-01T01:40:16;3.40;;;3.10;;
8007;SDS011;4049;49.468;11.200;2022-08-01T01:42:46;4.10;;;3.70;;
8007;SDS011;4049;49.468;11.200;2022-08-01T01:45:15;4.03;;;3.63;;
8007;SDS011;4049;49.468;11.200;2022-08-01T01:47:43;4.90;;;3.50;;
8007;SDS011;4049;49.468;11.200;2022-08-01T01:50:11;4.07;;;3.67;;
8007;SDS011;4049;49.468;11.200;2022-08-01T01:52:39;3.70;;;3.20;;
8007;SDS011;4049;49.468;11.200;2022-08-01T01:55:08;4.13;;;3.63;;
8007;SDS011;4049;49.468;11.200;2022-08-01T01:57:37;4.20;;;3.37;;
8007;SDS011;4049;49.468;11.200;2022-08-01T02:00:07;3.87;;;3.47;;
8007;SDS011;4049;49.468;11.200;2022-08-01T02:02:38;4.07;;;3.67;;
8007;SDS011;4049;49.468;11.200;2022-08-01T02:05:07;4.63;;;3.83;;
8007;SDS011;4049;49.468;11.200;2022-08-01T02:07:36;4.03;;;3.63;;
8007;SDS011;4049;49.468;11.200;2022-08-01T02:10:05;4.93;;;3.77;;
8007;SDS011;4049;49.468;11.200;2022-08-01T02:12:34;4.53;;;4.03;;
8007;SDS011;4049;49.468;11.200;2022-08-01T02:15:04;4.23;;;3.80;;
8007;SDS011;4049;49.468;11.200;2022-08-01T02:17:34;4.10;;;3.73;;
8007;SDS011;4049;49.468;11.200;2022-08-01T02:20:07;5.00;;;3.80;;
8007;SDS011;4049;49.468;11.200;2022-08-01T02:22:36;4.27;;;3.80;;
8007;SDS011;4049;49.468;11.200;2022-08-01T02:25:09;4.97;;;4.37;;
8007;SDS011;4049;49.468;11.200;2022-08-01T02:27:43;8.10;;;4.43;;
8007;SDS011;4049;49.468;11.200;2022-08-01T02:30:15;4.27;;;3.87;;
8007;SDS011;4049;49.468;11.200;2022-08-01T02:32:46;4.27;;;3.87;;
8007;SDS011;4049;49.468;11.200;2022-08-01T02:35:18;4.60;;;3.90;;
8007;SDS011;4049;49.468;11.200;2022-08-01T02:37:49;6.27;;;3.77;;
8007;SDS011;4049;49.468;11.200;2022-08-01T02:40:17;3.87;;;3.47;;
8007;SDS011;4049;49.468;11.200;2022-08-01T02:42:46;4.40;;;3.90;;
8007;SDS011;4049;49.468;11.200;2022-08-01T02:45:16;5.20;;;3.80;;
8007;SDS011;4049;49.468;11.200;2022-08-01T02:47:46;4.60;;;3.80;;
8007;SDS011;4049;49.468;11.200;2022-08-01T02:50:16;4.83;;;4.17;;
8007;SDS011;4049;49.468;11.200;2022-08-01T02:52:44;4.77;;;3.93;;
8007;SDS011;4049;49.468;11.200;2022-08-01T02:55:14;4.47;;;4.07;;
8007;SDS011;4049;49.468;11.200;2022-08-01T02:57:43;4.27;;;3.80;;
8007;SDS011;4049;49.468;11.200;2022-08-01T03:00:12;11.97;;;4.73;;
8007;SDS011;4049;49.468;11.200;2022-08-01T03:02:40;7.90;;;4.17;;
8007;SDS011;4049;49.468;11.200;2022-08-01T03:05:11;9.67;;;5.17;;
8007;SDS011;4049;49.468;11.200;2022-08-01T03:07:40;9.43;;;4.40;;
8007;SDS011;4049;49.468;11.200;2022-08-01T03:10:08;7.50;;;4.63;;
8007;SDS011;4049;49.468;11.200;2022-08-01T03:12:36;11.40;;;5.20;;
8007;SDS011;4049;49.468;11.200;2022-08-01T03:15:07;8.40;;;4.67;;
8007;SDS011;4049;49.468;11.200;2022-08-01T03:17:36;8.73;;;4.83;;
8007;SDS011;4049;49.468;11.200;2022-08-01T03:20:07;7.47;;;4.60;;
8007;SDS011;4049;49.468;11.200;2022-08-01T03:22:38;8.03;;;5.27;;
8007;SDS011;4049;49.468;11.200;2022-08-01T03:25:07;5.47;;;4.87;;
8007;SDS011;4049;49.468;11.200;2022-08-01T03:27:35;6.40;;;4.40;;
8007;SDS011;4049;49.468;11.200;2022-08-01T03:30:03;9.97;;;5.00;;
8007;SDS011;4049;49.468;11.200;2022-08-01T03:32:31;9.60;;;4.67;;
8007;SDS011;4049;49.468;11.200;2022-08-01T03:34:59;8.93;;;4.57;;
8007;SDS011;4049;49.468;11.200;2022-08-01T03:37:26;9.00;;;4.93;;
8007;SDS011;4049;49.468;11.200;2022-08-01T03:39:58;6.93;;;4.53;;
8007;SDS011;4049;49.468;11.200;2022-08-01T03:42:31;9.30;;;5.10;;
8007;SDS011;4049;49.468;11.200;2022-08-01T03:45:02;11.90;;;4.87;;
8007;SDS011;4049;49.468;11.200;2022-08-01T03:47:34;7.80;;;4.90;;
8007;SDS011;4049;49.468;11.200;2022-08-01T03:50:02;11.53;;;5.27;;
8007;SDS011;4049;49.468;11.200;2022-08-01T03:52:31;8.67;;;5.10;;
8007;SDS011;4049;49.468;11.200;2022-08-01T03:55:03;8.63;;;5.20;;
8007;SDS011;4049;49.468;11.200;2022-08-01T03:57:33;12.60;;;5.00;;
8007;SDS011;4049;49.468;11.200;2022-08-01T04:00:00;9.53;;;4.93;;
8007;SDS011;4049;49.468;11.200;2022-08-01T04:02:31;4.90;;;4.40;;
8007;SDS011;4049;49.468;11.200;2022-08-01T04:04:58;9.17;;;4.67;;
8007;SDS011;4049;49.468;11.200;2022-08-01T04:07:26;9.10;;;5.23;;
8007;SDS011;4049;49.468;11.200;2022-08-01T04:09:55;7.20;;;4.67;;
8007;SDS011;4049;49.468;11.200;2022-08-01T04:12:24;6.67;;;5.03;;
8007;SDS011;4049;49.468;11.200;2022-08-01T04:14:51;8.77;;;5.03;;
8007;SDS011;4049;49.468;11.200;2022-08-01T04:17:18;8.53;;;5.20;;
8007;SDS011;4049;49.468;11.200;2022-08-01T04:19:45;8.80;;;4.73;;
8007;SDS011;4049;49.468;11.200;2022-08-01T04:22:13;12.23;;;5.93;;
8007;SDS011;4049;49.468;11.200;2022-08-01T04:24:41;8.80;;;4.57;;
8007;SDS011;4049;49.468;11.200;2022-08-01T04:27:14;17.80;;;6.00;;
8007;SDS011;4049;49.468;11.200;2022-08-01T04:29:45;14.17;;;5.70;;
8007;SDS011;4049;49.468;11.200;2022-08-01T04:32:15;7.33;;;5.30;;
8007;SDS011;4049;49.468;11.200;2022-08-01T04:34:45;7.33;;;5.13;;
8007;SDS011;4049;49.468;11.200;2022-08-01T04:37:14;9.97;;;5.87;;
8007;SDS011;4049;49.468;11.200;2022-08-01T04:39:43;15.47;;;6.80;;
8007;SDS011;4049;49.468;11.200;2022-08-01T04:42:11;13.57;;;6.60;;
8007;SDS011;4049;49.468;11.200;2022-08-01T04:44:40;15.40;;;6.03;;
8007;SDS011;4049;49.468;11.200;2022-08-01T04:47:09;9.30;;;5.70;;
8007;SDS011;4049;49.468;11.200;2022-08-01T04:49:37;8.67;;;5.50;;
8007;SDS011;4049;49.468;11.200;2022-08-01T04:52:05;7.53;;;4.97;;
8007;SDS011;4049;49.468;11.200;2022-08-01T04:54:34;13.17;;;5.43;;
8007;SDS011;4049;49.468;11.200;2022-08-01T04:57:03;11.17;;;5.10;;
8007;SDS011;4049;49.468;11.200;2022-08-01T04:59:31;9.30;;;5.57;;
8007;SDS011;4049;49.468;11.200;2022-08-01T05:02:06;12.53;;;5.63;;
8007;SDS011;4049;49.468;11.200;2022-08-01T05:04:36;8.87;;;4.80;;
8007;SDS011;4049;49.468;11.200;2022-08-01T05:07:04;7.30;;;4.43;;
8007;SDS011;4049;49.468;11.200;2022-08-01T05:09:32;6.73;;;4.57;;
8007;SDS011;4049;49.468;11.200;2022-08-01T05:12:01;5.87;;;4.60;;
8007;SDS011;4049;49.468;11.200;2022-08-01T05:14:29;4.97;;;4.40;;
8007;SDS011;4049;49.468;11.200;2022-08-01T05:16:57;6.53;;;4.53;;
8007;SDS011;4049;49.468;11.200;2022-08-01T05:19:26;4.90;;;4.27;;
8007;SDS011;4049;49.468;11.200;2022-08-01T05:21:53;4.63;;;4.23;;
8007;SDS011;4049;49.468;11.200;2022-08-01T05:24:20;4.20;;;3.80;;
8007;SDS011;4049;49.468;11.200;2022-08-01T05:26:47;4.93;;;4.03;;
8007;SDS011;4049;49.468;11.200;2022-08-01T05:29:15;4.20;;;3.60;;
8007;SDS011;4049;49.468;11.200;2022-08-01T05:31:42;5.77;;;3.97;;
8007;SDS011;4049;49.468;11.200;2022-08-01T05:34:09;4.40;;;4.00;;
8007;SDS011;4049;49.468;11.200;2022-08-01T05:36:37;4.83;;;3.70;;
8007;SDS011;4049;49.468;11.200;2022-08-01T05:39:04;4.67;;;3.83;;
8007;SDS011;4049;49.468;11.200;2022-08-01T05:41:32;4.13;;;3.73;;
8007;SDS011;4049;49.468;11.200;2022-08-01T05:43:59;4.73;;;3.70;;
8007;SDS011;4049;49.468;11.200;2022-08-01T05:46:26;4.90;;;3.80;;
8007;SDS011;4049;49.468;11.200;2022-08-01T05:48:55;3.27;;;2.97;;
8007;SDS011;4049;49.468;11.200;2022-08-01T05:51:22;4.57;;;3.20;;
8007;SDS011;4049;49.468;11.200;2022-08-01T05:53:51;3.77;;;3.10;;
8007;SDS011;4049;49.468;11.200;2022-08-01T05:56:18;5.63;;;3.20;;
8007;SDS011;4049;49.468;11.200;2022-08-01T05:58:45;3.77;;;3.23;;
8007;SDS011;4049;49.468;11.200;2022-08-01T06:01:13;4.07;;;2.93;;
8007;SDS011;4049;49.468;11.200;2022-08-01T06:03:39;3.43;;;2.83;;
8007;SDS011;4049;49.468;11.200;2022-08-01T06:06:06;3.70;;;3.17;;
8007;SDS011;4049;49.468;11.200;2022-08-01T06:08:33;3.10;;;2.70;;
8007;SDS011;4049;49.468;11.200;2022-08-01T06:11:02;3.17;;;2.87;;
8007;SDS011;4049;49.468;11.200;2022-08-01T06:13:29;3.03;;;2.40;;
8007;SDS011;4049;49.468;11.200;2022-08-01T06:15:56;3.53;;;2.83;;
8007;SDS011;4049;49.468;11.200;2022-08-01T06:18:23;3.20;;;2.70;;
8007;SDS011;4049;49.468;11.200;2022-08-01T06:20:50;3.13;;;2.80;;
8007;SDS011;4049;49.468;11.200;2022-08-01T06:23:17;3.97;;;2.63;;
8007;SDS011;4049;49.468;11.200;2022-08-01T06:25:46;3.73;;;2.63;;
8007;SDS011;4049;49.468;11.200;2022-08-01T06:28:14;4.60;;;2.53;;
8007;SDS011;4049;49.468;11.200;2022-08-01T06:30:41;2.80;;;2.40;;
8007;SDS011;4049;49.468;11.200;2022-08-01T06:33:08;2.97;;;2.57;;
8007;SDS011;4049;49.468;11.200;2022-08-01T06:35:35;3.97;;;2.43;;
8007;SDS011;4049;49.468;11.200;2022-08-01T06:38:02;2.43;;;2.23;;
8007;SDS011;4049;49.468;11.200;2022-08-01T06:40:29;3.43;;;2.30;;
8007;SDS011;4049;49.468;11.200;2022-08-01T06:42:56;3.90;;;2.13;;
8007;SDS011;4049;49.468;11.200;2022-08-01T06:45:25;2.40;;;2.20;;
8007;SDS011;4049;49.468;11.200;2022-08-01T06:47:52;2.60;;;2.07;;
8007;SDS011;4049;49.468;11.200;2022-08-01T06:50:19;5.17;;;2.23;;
8007;SDS011;4049;49.468;11.200;2022-08-01T06:52:46;3.90;;;2.20;;
8007;SDS011;4049;49.468;11.200;2022-08-01T06:55:13;3.93;;;2.50;;
8007;SDS011;4049;49.468;11.200;2022-08-01T06:57:45;3.87;;;2.03;;
8007;SDS011;4049;49.468;11.200;2022-08-01T07:00:13;3.30;;;2.40;;
8007;SDS011;4049;49.468;11.200;2022-08-01T07:02:43;6.07;;;2.13;;
8007;SDS011;4049;49.468;11.200;2022-08-01T07:05:10;4.43;;;2.33;;
8007;SDS011;4049;49.468;11.200;2022-08-01T07:07:37;2.40;;;2.20;;
8007;SDS011;4049;49.468;11.200;2022-08-01T07:10:04;2.43;;;1.87;;
8007;SDS011;4049;49.468;11.200;2022-08-01T07:12:33;2.47;;;1.97;;
8007;SDS011;4049;49.468;11.200;2022-08-01T07:15:02;6.63;;;2.30;;
8007;SDS011;4049;49.468;11.200;2022-08-01T07:17:29;3.03;;;2.00;;
8007;SDS011;4049;49.468;11.200;2022-08-01T07:19:57;2.23;;;1.90;;
8007;SDS011;4049;49.468;11.200;2022-08-01T07:22:24;3.13;;;2.30;;
8007;SDS011;4049;49.468;11.200;2022-08-01T07:24:51;2.50;;;2.27;;
8007;SDS011;4049;49.468;11.200;2022-08-01T07:27:18;2.87;;;2.13;;
8007;SDS011;4049;49.468;11.200;2022-08-01T07:29:45;3.17;;;1.90;;
8007;SDS011;4049;49.468;11.200;2022-08-01T07:32:12;2.80;;;2.03;;
8007;SDS011;4049;49.468;11.200;2022-08-01T07:34:39;2.07;;;1.87;;
8007;SDS011;4049;49.468;11.200;2022-08-01T07:37:07;2.63;;;2.17;;
8007;SDS011;4049;49.468;11.200;2022-08-01T07:39:34;2.47;;;2.23;;
8007;SDS011;4049;49.468;11.200;2022-08-01T07:42:01;3.60;;;2.33;;
8007;SDS011;4049;49.468;11.200;2022-08-01T07:44:28;2.43;;;2.20;;
8007;SDS011;4049;49.468;11.200;2022-08-01T07:46:55;2.70;;;2.10;;
8007;SDS011;4049;49.468;11.200;2022-08-01T07:49:22;2.40;;;1.93;;
8007;SDS011;4049;49.468;11.200;2022-08-01T07:51:50;3.63;;;2.00;;
8007;SDS011;4049;49.468;11.200;2022-08-01T07:54:18;2.10;;;1.90;;
8007;SDS011;4049;49.468;11.200;2022-08-01T07:56:45;2.30;;;1.90;;
8007;SDS011;4049;49.468;11.200;2022-08-01T07:59:12;2.10;;;1.90;;
8007;SDS011;4049;49.468;11.200;2022-08-01T08:01:39;2.97;;;2.10;;
8007;SDS011;4049;49.468;11.200;2022-08-01T08:04:06;3.60;;;2.03;;
8007;SDS011;4049;49.468;11.200;2022-08-01T08:06:33;3.80;;;2.30;;
8007;SDS011;4049;49.468;11.200;2022-08-01T08:09:00;5.40;;;1.90;;
8007;SDS011;4049;49.468;11.200;2022-08-01T08:11:28;2.70;;;2.10;;
8007;SDS011;4049;49.468;11.200;2022-08-01T08:13:55;1.90;;;1.80;;
8007;SDS011;4049;49.468;11.200;2022-08-01T08:16:22;2.17;;;1.87;;
8007;SDS011;4049;49.468;11.200;2022-08-01T08:18:49;2.17;;;1.97;;
8007;SDS011;4049;49.468;11.200;2022-08-01T08:21:16;4.20;;;2.27;;
8007;SDS011;4049;49.468;11.200;2022-08-01T08:23:43;2.10;;;1.90;;
8007;SDS011;4049;49.468;11.200;2022-08-01T08:26:29;2.57;;;2.00;;
8007;SDS011;4049;49.468;11.200;2022-08-01T08:28:56;2.13;;;1.90;;
8007;SDS011;4049;49.468;11.200;2022-08-01T08:31:23;2.20;;;1.83;;
8007;SDS011;4049;49.468;11.200;2022-08-01T08:33:50;4.93;;;2.25;;
8007;SDS011;4049;49.468;11.200;2022-08-01T08:36:17;2.30;;;2.10;;
8007;SDS011;4049;49.468;11.200;2022-08-01T08:38:44;2.22;;;2.03;;
8007;SDS011;4049;49.468;11.200;2022-08-01T08:41:11;2.57;;;2.30;;
8007;SDS011;4049;49.468;11.200;2022-08-01T08:43:40;2.73;;;2.10;;
8007;SDS011;4049;49.468;11.200;2022-08-01T08:46:07;2.83;;;1.93;;
8007;SDS011;4049;49.468;11.200;2022-08-01T08:48:35;2.08;;;1.88;;
8007;SDS011;4049;49.468;11.200;2022-08-01T08:51:03;2.40;;;2.00;;
8007;SDS011;4049;49.468;11.200;2022-08-01T08:53:33;3.70;;;1.92;;
8007;SDS011;4049;49.468;11.200;2022-08-01T08:56:01;2.30;;;2.10;;
8007;SDS011;4049;49.468;11.200;2022-08-01T08:58:29;2.65;;;2.30;;
8007;SDS011;4049;49.468;11.200;2022-08-01T09:01:00;3.78;;;1.90;;
8007;SDS011;4049;49.468;11.200;2022-08-01T09:03:27;2.45;;;1.98;;
8007;SDS011;4049;49.468;11.200;2022-08-01T09:05:54;2.63;;;2.15;;
8007;SDS011;4049;49.468;11.200;2022-08-01T09:08:21;2.30;;;1.80;;
8007;SDS011;4049;49.468;11.200;2022-08-01T09:10:48;2.03;;;1.80;;
8007;SDS011;4049;49.468;11.200;2022-08-01T09:13:15;1.92;;;1.77;;
8007;SDS011;4049;49.468;11.200;2022-08-01T09:15:43;2.25;;;2.00;;
8007;SDS011;4049;49.468;11.200;2022-08-01T09:18:30;2.10;;;1.90;;
8007;SDS011;4049;49.468;11.200;2022-08-01T09:21:15;2.20;;;2.00;;
8007;SDS011;4049;49.468;11.200;2022-08-01T09:23:44;2.95;;;2.00;;
8007;SDS011;4049;49.468;11.200;2022-08-01T09:26:14;3.75;;;1.98;;
8007;SDS011;4049;49.468;11.200;2022-08-01T09:28:42;1.88;;;1.70;;
8007;SDS011;4049;49.468;11.200;2022-08-01T09:31:10;2.33;;;1.95;;
8007;SDS011;4049;49.468;11.200;2022-08-01T09:33:49;2.33;;;1.80;;
8007;SDS011;4049;49.468;11.200;2022-08-01T09:36:19;1.92;;;1.83;;
8007;SDS011;4049;49.468;11.200;2022-08-01T09:38:46;3.30;;;1.90;;
8007;SDS011;4049;49.468;11.200;2022-08-01T09:41:14;1.83;;;1.63;;
8007;SDS011;4049;49.468;11.200;2022-08-01T09:43:41;2.65;;;1.80;;
8007;SDS011;4049;49.468;11.200;2022-08-01T09:46:15;1.60;;;1.50;;
8007;SDS011;4049;49.468;11.200;2022-08-01T09:48:55;1.70;;;1.60;;
8007;SDS011;4049;49.468;11.200;2022-08-01T09:51:31;2.28;;;2.00;;
8007;SDS011;4049;49.468;11.200;2022-08-01T09:53:59;1.88;;;1.65;;
8007;SDS011;4049;49.468;11.200;2022-08-01T09:56:35;2.00;;;1.80;;
8007;SDS011;4049;49.468;11.200;2022-08-01T09:59:03;2.13;;;1.58;;
8007;SDS011;4049;49.468;11.200;2022-08-01T10:01:41;2.25;;;1.70;;
8007;SDS011;4049;49.468;11.200;2022-08-01T10:04:12;1.98;;;1.60;;
8007;SDS011;4049;49.468;11.200;2022-08-01T10:06:41;1.67;;;1.58;;
8007;SDS011;4049;49.468;11.200;2022-08-01T10:09:10;1.98;;;1.50;;
8007;SDS011;4049;49.468;11.200;2022-08-01T10:11:38;1.77;;;1.67;;
8007;SDS011;4049;49.468;11.200;2022-08-01T10:14:08;2.10;;;1.50;;
8007;SDS011;4049;49.468;11.200;2022-08-01T10:16:37;1.60;;;1.50;;
8007;SDS011;4049;49.468;11.200;2022-08-01T10:19:06;1.95;;;1.20;;
8007;SDS011;4049;49.468;11.200;2022-08-01T10:21:35;1.65;;;1.40;;
8007;SDS011;4049;49.468;11.200;2022-08-01T10:24:04;1.30;;;1.20;;
8007;SDS011;4049;49.468;11.200;2022-08-01T10:26:33;1.60;;;1.50;;
8007;SDS011;4049;49.468;11.200;2022-08-01T10:29:02;1.30;;;1.20;;
8007;SDS011;4049;49.468;11.200;2022-08-01T10:31:30;1.50;;;1.40;;
8007;SDS011;4049;49.468;11.200;2022-08-01T10:33:59;2.10;;;1.60;;
8007;SDS011;4049;49.468;11.200;2022-08-01T10:36:26;2.90;;;1.20;;
8007;SDS011;4049;49.468;11.200;2022-08-01T10:38:55;2.47;;;1.52;;
8007;SDS011;4049;49.468;11.200;2022-08-01T10:41:23;1.55;;;1.40;;
8007;SDS011;4049;49.468;11.200;2022-08-01T10:43:51;2.22;;;1.30;;
8007;SDS011;4049;49.468;11.200;2022-08-01T10:46:19;2.58;;;1.40;;
8007;SDS011;4049;49.468;11.200;2022-08-01T10:48:47;1.30;;;1.20;;
8007;SDS011;4049;49.468;11.200;2022-08-01T10:51:21;1.40;;;1.20;;
8007;SDS011;4049;49.468;11.200;2022-08-01T10:53:50;1.65;;;1.25;;
8007;SDS011;4049;49.468;11.200;2022-08-01T10:56:19;1.30;;;1.20;;
8007;SDS011;4049;49.468;11.200;2022-08-01T10:58:47;2.42;;;1.20;;
8007;SDS011;4049;49.468;11.200;2022-08-01T11:01:19;1.70;;;1.30;;
8007;SDS011;4049;49.468;11.200;2022-08-01T11:03:57;1.77;;;1.23;;
8007;SDS011;4049;49.468;11.200;2022-08-01T11:06:37;1.50;;;1.38;;
8007;SDS011;4049;49.468;11.200;2022-08-01T11:12:09;2.08;;;1.58;;
8007;SDS011;4049;49.468;11.200;2022-08-01T11:17:51;1.33;;;1.23;;
8007;SDS011;4049;49.468;11.200;2022-08-01T11:20:19;3.30;;;1.38;;
8007;SDS011;4049;49.468;11.200;2022-08-01T11:26:09;1.73;;;1.50;;
8007;SDS011;4049;49.468;11.200;2022-08-01T11:28:39;1.30;;;1.20;;
8007;SDS011;4049;49.468;11.200;2022-08-01T11:31:25;1.60;;;1.35;;
8007;SDS011;4049;49.468;11.200;2022-08-01T11:33:53;1.40;;;1.30;;
8007;SDS011;4049;49.468;11.200;2022-08-01T11:36:20;1.20;;;1.10;;
8007;SDS011;4049;49.468;11.200;2022-08-01T11:38:48;1.60;;;1.23;;
8007;SDS011;4049;49.468;11.200;2022-08-01T11:41:17;3.88;;;1.25;;
8007;SDS011;4049;49.468;11.200;2022-08-01T11:43:56;1.30;;;1.20;;
8007;SDS011;4049;49.468;11.200;2022-08-01T11:49:31;1.27;;;1.17;;
8007;SDS011;4049;49.468;11.200;2022-08-01T11:52:02;2.03;;;1.10;;
8007;SDS011;4049;49.468;11.200;2022-08-01T11:54:31;1.77;;;1.00;;
8007;SDS011;4049;49.468;11.200;2022-08-01T11:57:00;1.60;;;1.23;;
8007;SDS011;4049;49.468;11.200;2022-08-01T11:59:36;1.30;;;1.20;;
8007;SDS011;4049;49.468;11.200;2022-08-01T12:02:14;1.65;;;1.40;;
8007;SDS011;4049;49.468;11.200;2022-08-01T12:04:47;1.90;;;1.45;;
8007;SDS011;4049;49.468;11.200;2022-08-01T12:07:15;1.40;;;1.30;;
8007;SDS011;4049;49.468;11.200;2022-08-01T12:09:43;1.40;;;1.30;;
8007;SDS011;4049;49.468;11.200;2022-08-01T12:12:12;1.38;;;1.27;;
8007;SDS011;4049;49.468;11.200;2022-08-01T12:14:44;1.35;;;1.25;;
8007;SDS011;4049;49.468;11.200;2022-08-01T12:17:19;2.20;;;1.30;;
8007;SDS011;4049;49.468;11.200;2022-08-01T12:19:53;1.55;;;1.45;;
8007;SDS011;4049;49.468;11.200;2022-08-01T12:22:22;1.25;;;1.13;;
8007;SDS011;4049;49.468;11.200;2022-08-01T12:24:50;1.50;;;1.40;;
8007;SDS011;4049;49.468;11.200;2022-08-01T12:27:23;1.60;;;1.50;;
8007;SDS011;4049;49.468;11.200;2022-08-01T12:29:52;1.70;;;1.60;;
8007;SDS011;4049;49.468;11.200;2022-08-01T12:32:21;2.53;;;1.40;;
8007;SDS011;4049;49.468;11.200;2022-08-01T12:34:52;2.70;;;1.50;;
8007;SDS011;4049;49.468;11.200;2022-08-01T12:37:21;1.50;;;1.40;;
8007;SDS011;4049;49.468;11.200;2022-08-01T12:39:48;1.70;;;1.60;;
8007;SDS011;4049;49.468;11.200;2022-08-01T12:42:15;1.63;;;1.50;;
8007;SDS011;4049;49.468;11.200;2022-08-01T12:44:43;2.70;;;2.10;;
8007;SDS011;4049;49.468;11.200;2022-08-01T12:47:13;2.63;;;1.70;;
8007;SDS011;4049;49.468;11.200;2022-08-01T12:49:42;1.52;;;1.38;;
8007;SDS011;4049;49.468;11.200;2022-08-01T12:52:10;1.70;;;1.60;;
8007;SDS011;4049;49.468;11.200;2022-08-01T12:57:33;2.20;;;1.83;;
8007;SDS011;4049;49.468;11.200;2022-08-01T13:00:07;3.10;;;1.90;;
8007;SDS011;4049;49.468;11.200;2022-08-01T13:02:38;1.90;;;1.70;;
8007;SDS011;4049;49.468;11.200;2022-08-01T13:05:06;2.05;;;1.85;;
8007;SDS011;4049;49.468;11.200;2022-08-01T13:07:35;2.15;;;1.60;;
8007;SDS011;4049;49.468;11.200;2022-08-01T13:10:06;1.80;;;1.70;;
8007;SDS011;4049;49.468;11.200;2022-08-01T13:12:35;2.95;;;1.67;;
8007;SDS011;4049;49.468;11.200;2022-08-01T13:15:16;1.85;;;1.65;;
8007;SDS011;4049;49.468;11.200;2022-08-01T13:17:45;1.98;;;1.77;;
8007;SDS011;4049;49.468;11.200;2022-08-01T13:20:21;2.35;;;1.83;;
8007;SDS011;4049;49.468;11.200;2022-08-01T13:22:49;1.65;;;1.55;;
8007;SDS011;4049;49.468;11.200;2022-08-01T13:25:16;1.50;;;1.40;;
8007;SDS011;4049;49.468;11.200;2022-08-01T13:27:44;3.00;;;1.48;;
8007;SDS011;4049;49.468;11.200;2022-08-01T13:30:11;2.28;;;1.83;;
8007;SDS011;4049;49.468;11.200;2022-08-01T13:32:39;2.30;;;2.00;;
8007;SDS011;4049;49.468;11.200;2022-08-01T13:35:10;1.85;;;1.75;;
8007;SDS011;4049;49.468;11.200;2022-08-01T13:37:38;2.85;;;2.08;;
8007;SDS011;4049;49.468;11.200;2022-08-01T13:40:07;2.00;;;1.80;;
8007;SDS011;4049;49.468;11.200;2022-08-01T13:42:36;2.00;;;1.90;;
8007;SDS011;4049;49.468;11.200;2022-08-01T13:45:04;4.22;;;1.70;;
8007;SDS011;4049;49.468;11.200;2022-08-01T13:47:34;1.92;;;1.50;;
8007;SDS011;4049;49.468;11.200;2022-08-01T13:50:01;2.88;;;1.55;;
8007;SDS011;4049;49.468;11.200;2022-08-01T13:52:30;1.48;;;1.33;;
8007;SDS011;4049;49.468;11.200;2022-08-01T13:54:57;1.80;;;1.58;;
8007;SDS011;4049;49.468;11.200;2022-08-01T13:57:24;1.85;;;1.67;;
8007;SDS011;4049;49.468;11.200;2022-08-01T13:59:51;1.92;;;1.20;;
8007;SDS011;4049;49.468;11.200;2022-08-01T14:02:18;2.45;;;1.40;;
8007;SDS011;4049;49.468;11.200;2022-08-01T14:04:45;1.70;;;1.48;;
8007;SDS011;4049;49.468;11.200;2022-08-01T14:07:12;1.40;;;1.30;;
8007;SDS011;4049;49.468;11.200;2022-08-01T14:09:41;1.65;;;1.35;;
8007;SDS011;4049;49.468;11.200;2022-08-01T14:12:08;1.50;;;1.40;;
8007;SDS011;4049;49.468;11.200;2022-08-01T14:14:35;1.40;;;1.30;;
8007;SDS011;4049;49.468;11.200;2022-08-01T14:17:03;2.65;;;1.40;;
8007;SDS011;4049;49.468;11.200;2022-08-01T14:19:30;2.15;;;1.50;;
8007;SDS011;4049;49.468;11.200;2022-08-01T14:21:57;1.60;;;1.50;;
8007;SDS011;4049;49.468;11.200;2022-08-01T14:24:24;2.60;;;1.63;;
8007;SDS011;4049;49.468;11.200;2022-08-01T14:26:53;1.60;;;1.50;;
8007;SDS011;4049;49.468;11.200;2022-08-01T14:29:20;1.60;;;1.45;;
8007;SDS011;4049;49.468;11.200;2022-08-01T14:31:47;1.50;;;1.40;;
8007;SDS011;4049;49.468;11.200;2022-08-01T14:34:14;1.45;;;1.35;;
8007;SDS011;4049;49.468;11.200;2022-08-01T14:36:42;2.10;;;1.42;;
8007;SDS011;4049;49.468;11.200;2022-08-01T14:39:09;1.52;;;1.40;;
8007;SDS011;4049;49.468;11.200;2022-08-01T14:41:36;1.33;;;1.23;;
8007;SDS011;4049;49.468;11.200;2022-08-01T14:44:04;1.33;;;1.23;;
8007;SDS011;4049;49.468;11.200;2022-08-01T14:46:31;1.30;;;1.20;;
8007;SDS011;4049;49.468;11.200;2022-08-01T14:48:58;1.48;;;1.30;;
8007;SDS011;4049;49.468;11.200;2022-08-01T14:51:25;2.00;;;1.10;;
8007;SDS011;4049;49.468;11.200;2022-08-01T14:53:52;1.42;;;1.23;;
8007;SDS011;4049;49.468;11.200;2022-08-01T14:56:19;1.50;;;1.17;;
8007;SDS011;4049;49.468;11.200;2022-08-01T14:58:46;2.35;;;1.17;;
8007;SDS011;4049;49.468;11.200;2022-08-01T15:01:15;1.40;;;1.30;;
8007;SDS011;4049;49.468;11.200;2022-08-01T15:03:42;1.30;;;1.20;;
8007;SDS011;4049;49.468;11.200;2022-08-01T15:06:10;1.27;;;1.17;;
8007;SDS011;4049;49.468;11.200;2022-08-01T15:08:37;1.30;;;1.20;;
8007;SDS011;4049;49.468;11.200;2022-08-01T15:11:04;1.15;;;1.05;;
8007;SDS011;4049;49.468;11.200;2022-08-01T15:13:33;1.23;;;1.13;;
8007;SDS011;4049;49.468;11.200;2022-08-01T15:16:00;1.33;;;1.23;;
8007;SDS011;4049;49.468;11.200;2022-08-01T15:18:28;1.40;;;1.30;;
8007;SDS011;4049;49.468;11.200;2022-08-01T15:20:55;1.65;;;1.20;;
8007;SDS011;4049;49.468;11.200;2022-08-01T15:23:23;2.28;;;1.05;;
8007;SDS011;4049;49.468;11.200;2022-08-01T15:25:50;2.40;;;1.15;;
8007;SDS011;4049;49.468;11.200;2022-08-01T15:28:17;1.35;;;1.10;;